sensor_id;sensor_type;location;lat;lon;timestamp;P1;durP1;ratioP1;P2;durP2;ratioP2
13571;SDS011;6857;53.484;10.216;2023-07-16T00:02:13;2.87;;;1.70;;
13571;SDS011;6857;53.484;10.216;2023-07-16T00:04:39;3.00;;;1.57;;
13571;SDS011;6857;53.484;10.216;2023-07-16T00:07:05;2.93;;;1.83;;
13571;SDS011;6857;53.484;10.216;2023-07-16T00:09:31;3.93;;;1.90;;
13571;SDS011;6857;53.484;10.216;2023-07-16T00:11:57;2.00;;;1.33;;
13571;SDS011;6857;53.484;10.216;2023-07-16T00:14:23;1.93;;;1.40;;
13571;SDS011;6857;53.484;10.216;2023-07-16T00:16:49;2.10;;;1.40;;
13571;SDS011;6857;53.484;10.216;2023-07-16T00:19:15;3.30;;;1.60;;
13571;SDS011;6857;53.484;10.216;2023-07-16T00:21:41;2.63;;;1.67;;
13571;SDS011;6857;53.484;10.216;2023-07-16T00:24:07;1.60;;;1.30;;
13571;SDS011;6857;53.484;10.216;2023-07-16T00:26:33;2.20;;;1.50;;
13571;SDS011;6857;53.484;10.216;2023-07-16T00:28:59;1.80;;;1.33;;
13571;SDS011;6857;53.484;10.216;2023-07-16T00:31:25;2.30;;;1.40;;
13571;SDS011;6857;53.484;10.216;2023-07-16T00:33:51;2.30;;;1.73;;
13571;SDS011;6857;53.484;10.216;2023-07-16T00:36:16;3.17;;;1.17;;
13571;SDS011;6857;53.484;10.216;2023-07-16T00:38:42;2.70;;;1.50;;
13571;SDS011;6857;53.484;10.216;2023-07-16T00:41:10;2.80;;;1.60;;
13571;SDS011;6857;53.484;10.216;2023-07-16T00:43:36;2.53;;;1.20;;
13571;SDS011;6857;53.484;10.216;2023-07-16T00:46:02;1.97;;;1.30;;
13571;SDS011;6857;53.484;10.216;2023-07-16T00:48:28;2.80;;;1.50;;
13571;SDS011;6857;53.484;10.216;2023-07-16T00:50:54;2.50;;;1.30;;
13571;SDS011;6857;53.484;10.216;2023-07-16T00:53:20;1.93;;;1.60;;
13571;SDS011;6857;53.484;10.216;2023-07-16T00:55:47;3.50;;;1.30;;
13571;SDS011;6857;53.484;10.216;2023-07-16T00:58:13;2.83;;;1.23;;
13571;SDS011;6857;53.484;10.216;2023-07-16T01:00:39;3.03;;;1.40;;
13571;SDS011;6857;53.484;10.216;2023-07-16T01:03:06;2.17;;;1.33;;
13571;SDS011;6857;53.484;10.216;2023-07-16T01:05:34;3.30;;;1.50;;
13571;SDS011;6857;53.484;10.216;2023-07-16T01:08:03;2.47;;;1.50;;
13571;SDS011;6857;53.484;10.216;2023-07-16T01:10:29;1.83;;;1.43;;
13571;SDS011;6857;53.484;10.216;2023-07-16T01:12:56;1.77;;;1.43;;
13571;SDS011;6857;53.484;10.216;2023-07-16T01:15:23;1.60;;;1.50;;
13571;SDS011;6857;53.484;10.216;2023-07-16T01:17:49;1.83;;;1.30;;
13571;SDS011;6857;53.484;10.216;2023-07-16T01:20:15;3.30;;;1.40;;
13571;SDS011;6857;53.484;10.216;2023-07-16T01:30:37;2.10;;;1.27;;
13571;SDS011;6857;53.484;10.216;2023-07-16T01:33:03;1.70;;;1.33;;
13571;SDS011;6857;53.484;10.216;2023-07-16T01:35:30;1.67;;;1.23;;
13571;SDS011;6857;53.484;10.216;2023-07-16T01:37:57;1.80;;;1.43;;
13571;SDS011;6857;53.484;10.216;2023-07-16T01:40:23;2.03;;;1.33;;
13571;SDS011;6857;53.484;10.216;2023-07-16T01:42:49;3.13;;;1.50;;
13571;SDS011;6857;53.484;10.216;2023-07-16T01:45:14;3.50;;;1.30;;
13571;SDS011;6857;53.484;10.216;2023-07-16T01:47:50;2.93;;;1.47;;
13571;SDS011;6857;53.484;10.216;2023-07-16T01:50:19;2.73;;;1.40;;
13571;SDS011;6857;53.484;10.216;2023-07-16T01:52:45;1.60;;;1.30;;
13571;SDS011;6857;53.484;10.216;2023-07-16T01:55:11;1.90;;;1.50;;
13571;SDS011;6857;53.484;10.216;2023-07-16T01:57:37;1.93;;;1.40;;
13571;SDS011;6857;53.484;10.216;2023-07-16T02:00:03;2.00;;;1.20;;
13571;SDS011;6857;53.484;10.216;2023-07-16T02:02:29;2.07;;;1.70;;
13571;SDS011;6857;53.484;10.216;2023-07-16T02:04:55;2.63;;;1.73;;
13571;SDS011;6857;53.484;10.216;2023-07-16T02:07:21;2.90;;;1.80;;
13571;SDS011;6857;53.484;10.216;2023-07-16T02:09:49;3.17;;;1.77;;
13571;SDS011;6857;53.484;10.216;2023-07-16T02:12:15;2.47;;;1.43;;
13571;SDS011;6857;53.484;10.216;2023-07-16T02:14:41;4.47;;;1.73;;
13571;SDS011;6857;53.484;10.216;2023-07-16T02:17:07;3.97;;;2.20;;
13571;SDS011;6857;53.484;10.216;2023-07-16T02:19:33;2.87;;;1.70;;
13571;SDS011;6857;53.484;10.216;2023-07-16T02:21:59;3.73;;;1.97;;
13571;SDS011;6857;53.484;10.216;2023-07-16T02:24:24;3.67;;;2.00;;
13571;SDS011;6857;53.484;10.216;2023-07-16T02:26:50;3.23;;;1.70;;
13571;SDS011;6857;53.484;10.216;2023-07-16T02:29:16;2.60;;;1.80;;
13571;SDS011;6857;53.484;10.216;2023-07-16T02:31:42;3.60;;;1.43;;
13571;SDS011;6857;53.484;10.216;2023-07-16T02:34:11;2.10;;;1.90;;
13571;SDS011;6857;53.484;10.216;2023-07-16T02:36:37;2.93;;;1.60;;
13571;SDS011;6857;53.484;10.216;2023-07-16T02:39:03;2.73;;;1.93;;
13571;SDS011;6857;53.484;10.216;2023-07-16T02:41:29;4.60;;;1.77;;
13571;SDS011;6857;53.484;10.216;2023-07-16T02:43:59;2.13;;;1.70;;
13571;SDS011;6857;53.484;10.216;2023-07-16T02:46:25;3.23;;;1.60;;
13571;SDS011;6857;53.484;10.216;2023-07-16T02:48:51;3.97;;;1.90;;
13571;SDS011;6857;53.484;10.216;2023-07-16T02:51:17;1.80;;;1.70;;
13571;SDS011;6857;53.484;10.216;2023-07-16T02:53:43;2.90;;;1.73;;
13571;SDS011;6857;53.484;10.216;2023-07-16T02:56:09;3.67;;;2.13;;
13571;SDS011;6857;53.484;10.216;2023-07-16T02:58:35;2.63;;;1.90;;
13571;SDS011;6857;53.484;10.216;2023-07-16T03:01:01;4.13;;;1.70;;
13571;SDS011;6857;53.484;10.216;2023-07-16T03:03:27;3.07;;;1.97;;
13571;SDS011;6857;53.484;10.216;2023-07-16T03:05:53;3.30;;;1.70;;
13571;SDS011;6857;53.484;10.216;2023-07-16T03:08:19;3.13;;;1.80;;
13571;SDS011;6857;53.484;10.216;2023-07-16T03:10:45;4.70;;;2.00;;
13571;SDS011;6857;53.484;10.216;2023-07-16T03:13:11;4.13;;;1.90;;
13571;SDS011;6857;53.484;10.216;2023-07-16T03:15:36;2.97;;;1.60;;
13571;SDS011;6857;53.484;10.216;2023-07-16T03:18:02;2.27;;;1.50;;
13571;SDS011;6857;53.484;10.216;2023-07-16T03:20:28;8.67;;;2.20;;
13571;SDS011;6857;53.484;10.216;2023-07-16T03:22:54;4.23;;;1.93;;
13571;SDS011;6857;53.484;10.216;2023-07-16T03:25:20;4.07;;;2.10;;
13571;SDS011;6857;53.484;10.216;2023-07-16T03:27:46;3.33;;;2.43;;
13571;SDS011;6857;53.484;10.216;2023-07-16T03:30:12;4.50;;;1.73;;
13571;SDS011;6857;53.484;10.216;2023-07-16T03:32:38;3.97;;;2.27;;
13571;SDS011;6857;53.484;10.216;2023-07-16T03:35:04;5.77;;;4.30;;
13571;SDS011;6857;53.484;10.216;2023-07-16T03:37:30;11.17;;;9.70;;
13571;SDS011;6857;53.484;10.216;2023-07-16T03:39:56;6.13;;;4.37;;
13571;SDS011;6857;53.484;10.216;2023-07-16T03:42:22;6.70;;;4.83;;
13571;SDS011;6857;53.484;10.216;2023-07-16T03:44:48;6.07;;;2.63;;
13571;SDS011;6857;53.484;10.216;2023-07-16T03:47:14;2.57;;;1.57;;
13571;SDS011;6857;53.484;10.216;2023-07-16T03:49:40;4.83;;;3.50;;
13571;SDS011;6857;53.484;10.216;2023-07-16T03:52:06;5.80;;;3.80;;
13571;SDS011;6857;53.484;10.216;2023-07-16T03:54:32;4.37;;;2.13;;
13571;SDS011;6857;53.484;10.216;2023-07-16T03:56:58;3.27;;;2.30;;
13571;SDS011;6857;53.484;10.216;2023-07-16T03:59:24;4.03;;;2.27;;
13571;SDS011;6857;53.484;10.216;2023-07-16T04:01:50;3.73;;;2.17;;
13571;SDS011;6857;53.484;10.216;2023-07-16T04:04:16;3.23;;;1.60;;
13571;SDS011;6857;53.484;10.216;2023-07-16T04:06:42;2.70;;;2.23;;
13571;SDS011;6857;53.484;10.216;2023-07-16T04:09:08;3.13;;;1.87;;
13571;SDS011;6857;53.484;10.216;2023-07-16T04:11:34;3.33;;;2.10;;
13571;SDS011;6857;53.484;10.216;2023-07-16T04:14:00;2.90;;;2.00;;
13571;SDS011;6857;53.484;10.216;2023-07-16T04:16:26;3.73;;;1.93;;
13571;SDS011;6857;53.484;10.216;2023-07-16T04:18:52;3.67;;;2.23;;
13571;SDS011;6857;53.484;10.216;2023-07-16T04:21:18;2.97;;;2.10;;
13571;SDS011;6857;53.484;10.216;2023-07-16T04:23:44;3.30;;;2.10;;
13571;SDS011;6857;53.484;10.216;2023-07-16T04:26:09;3.30;;;1.90;;
13571;SDS011;6857;53.484;10.216;2023-07-16T04:28:35;4.93;;;2.37;;
13571;SDS011;6857;53.484;10.216;2023-07-16T04:31:01;5.60;;;2.03;;
13571;SDS011;6857;53.484;10.216;2023-07-16T04:33:27;1.97;;;1.77;;
13571;SDS011;6857;53.484;10.216;2023-07-16T04:35:53;2.97;;;2.00;;
13571;SDS011;6857;53.484;10.216;2023-07-16T04:38:19;4.07;;;2.13;;
13571;SDS011;6857;53.484;10.216;2023-07-16T04:40:45;3.40;;;1.70;;
13571;SDS011;6857;53.484;10.216;2023-07-16T04:43:11;3.77;;;1.93;;
13571;SDS011;6857;53.484;10.216;2023-07-16T04:45:37;4.90;;;2.17;;
13571;SDS011;6857;53.484;10.216;2023-07-16T04:48:04;3.20;;;2.10;;
13571;SDS011;6857;53.484;10.216;2023-07-16T04:50:31;3.67;;;2.07;;
13571;SDS011;6857;53.484;10.216;2023-07-16T04:52:57;3.47;;;1.60;;
13571;SDS011;6857;53.484;10.216;2023-07-16T04:55:23;3.57;;;2.10;;
13571;SDS011;6857;53.484;10.216;2023-07-16T04:57:49;4.00;;;2.10;;
13571;SDS011;6857;53.484;10.216;2023-07-16T05:00:18;3.67;;;2.13;;
13571;SDS011;6857;53.484;10.216;2023-07-16T05:02:44;4.47;;;2.30;;
13571;SDS011;6857;53.484;10.216;2023-07-16T05:05:10;7.53;;;4.23;;
13571;SDS011;6857;53.484;10.216;2023-07-16T05:07:36;3.90;;;2.10;;
13571;SDS011;6857;53.484;10.216;2023-07-16T05:10:02;4.53;;;2.10;;
13571;SDS011;6857;53.484;10.216;2023-07-16T05:12:28;5.13;;;3.07;;
13571;SDS011;6857;53.484;10.216;2023-07-16T05:14:54;2.83;;;1.90;;
13571;SDS011;6857;53.484;10.216;2023-07-16T05:17:20;3.30;;;2.13;;
13571;SDS011;6857;53.484;10.216;2023-07-16T05:19:45;3.03;;;1.90;;
13571;SDS011;6857;53.484;10.216;2023-07-16T05:22:11;4.27;;;2.20;;
13571;SDS011;6857;53.484;10.216;2023-07-16T05:24:37;3.90;;;2.50;;
13571;SDS011;6857;53.484;10.216;2023-07-16T05:27:03;4.60;;;2.30;;
13571;SDS011;6857;53.484;10.216;2023-07-16T05:29:30;3.87;;;2.30;;
13571;SDS011;6857;53.484;10.216;2023-07-16T05:31:55;4.87;;;2.03;;
13571;SDS011;6857;53.484;10.216;2023-07-16T05:34:21;3.13;;;1.90;;
13571;SDS011;6857;53.484;10.216;2023-07-16T05:36:47;3.37;;;2.00;;
13571;SDS011;6857;53.484;10.216;2023-07-16T05:39:13;3.57;;;2.07;;
13571;SDS011;6857;53.484;10.216;2023-07-16T05:41:39;2.67;;;2.00;;
13571;SDS011;6857;53.484;10.216;2023-07-16T05:44:06;4.90;;;2.53;;
13571;SDS011;6857;53.484;10.216;2023-07-16T05:46:32;2.47;;;2.17;;
13571;SDS011;6857;53.484;10.216;2023-07-16T05:48:59;3.17;;;1.70;;
13571;SDS011;6857;53.484;10.216;2023-07-16T05:51:25;5.43;;;2.77;;
13571;SDS011;6857;53.484;10.216;2023-07-16T05:53:51;6.53;;;4.00;;
13571;SDS011;6857;53.484;10.216;2023-07-16T05:56:16;3.93;;;2.00;;
13571;SDS011;6857;53.484;10.216;2023-07-16T05:58:42;4.60;;;2.20;;
13571;SDS011;6857;53.484;10.216;2023-07-16T06:01:08;3.37;;;1.97;;
13571;SDS011;6857;53.484;10.216;2023-07-16T06:03:34;8.27;;;5.77;;
13571;SDS011;6857;53.484;10.216;2023-07-16T06:06:00;3.53;;;1.50;;
13571;SDS011;6857;53.484;10.216;2023-07-16T06:08:26;3.77;;;2.00;;
13571;SDS011;6857;53.484;10.216;2023-07-16T06:10:52;4.57;;;2.10;;
13571;SDS011;6857;53.484;10.216;2023-07-16T06:13:18;5.70;;;2.07;;
13571;SDS011;6857;53.484;10.216;2023-07-16T06:15:45;4.17;;;1.90;;
13571;SDS011;6857;53.484;10.216;2023-07-16T06:18:11;4.73;;;1.80;;
13571;SDS011;6857;53.484;10.216;2023-07-16T06:20:37;2.87;;;1.87;;
13571;SDS011;6857;53.484;10.216;2023-07-16T06:23:03;8.00;;;2.03;;
13571;SDS011;6857;53.484;10.216;2023-07-16T06:25:29;3.73;;;1.73;;
13571;SDS011;6857;53.484;10.216;2023-07-16T06:27:55;5.10;;;2.17;;
13571;SDS011;6857;53.484;10.216;2023-07-16T06:30:21;4.30;;;1.73;;
13571;SDS011;6857;53.484;10.216;2023-07-16T06:32:47;2.93;;;1.80;;
13571;SDS011;6857;53.484;10.216;2023-07-16T06:35:13;4.03;;;1.63;;
13571;SDS011;6857;53.484;10.216;2023-07-16T06:37:39;5.07;;;1.93;;
13571;SDS011;6857;53.484;10.216;2023-07-16T06:40:05;7.20;;;2.00;;
13571;SDS011;6857;53.484;10.216;2023-07-16T06:42:31;4.83;;;2.10;;
13571;SDS011;6857;53.484;10.216;2023-07-16T06:44:57;5.17;;;1.70;;
13571;SDS011;6857;53.484;10.216;2023-07-16T06:47:23;4.23;;;2.07;;
13571;SDS011;6857;53.484;10.216;2023-07-16T06:49:49;5.83;;;4.00;;
13571;SDS011;6857;53.484;10.216;2023-07-16T06:52:19;4.20;;;1.63;;
13571;SDS011;6857;53.484;10.216;2023-07-16T06:54:45;5.30;;;2.13;;
13571;SDS011;6857;53.484;10.216;2023-07-16T06:57:11;3.93;;;1.80;;
13571;SDS011;6857;53.484;10.216;2023-07-16T06:59:37;3.83;;;1.67;;
13571;SDS011;6857;53.484;10.216;2023-07-16T07:02:03;4.00;;;1.77;;
13571;SDS011;6857;53.484;10.216;2023-07-16T07:04:29;3.50;;;2.00;;
13571;SDS011;6857;53.484;10.216;2023-07-16T07:06:55;3.67;;;1.80;;
13571;SDS011;6857;53.484;10.216;2023-07-16T07:09:21;5.53;;;2.27;;
13571;SDS011;6857;53.484;10.216;2023-07-16T07:11:47;4.83;;;2.10;;
13571;SDS011;6857;53.484;10.216;2023-07-16T07:14:13;8.33;;;2.37;;
13571;SDS011;6857;53.484;10.216;2023-07-16T07:16:39;5.67;;;2.63;;
13571;SDS011;6857;53.484;10.216;2023-07-16T07:19:05;4.70;;;2.13;;
13571;SDS011;6857;53.484;10.216;2023-07-16T07:21:31;6.23;;;2.37;;
13571;SDS011;6857;53.484;10.216;2023-07-16T07:23:57;3.50;;;2.30;;
13571;SDS011;6857;53.484;10.216;2023-07-16T07:26:23;4.27;;;2.27;;
13571;SDS011;6857;53.484;10.216;2023-07-16T07:28:49;4.37;;;2.50;;
13571;SDS011;6857;53.484;10.216;2023-07-16T07:31:15;5.70;;;2.33;;
13571;SDS011;6857;53.484;10.216;2023-07-16T07:33:41;5.13;;;2.27;;
13571;SDS011;6857;53.484;10.216;2023-07-16T07:36:07;4.67;;;2.13;;
13571;SDS011;6857;53.484;10.216;2023-07-16T07:38:33;7.67;;;2.53;;
13571;SDS011;6857;53.484;10.216;2023-07-16T07:40:59;4.37;;;2.33;;
13571;SDS011;6857;53.484;10.216;2023-07-16T07:43:24;4.63;;;2.43;;
13571;SDS011;6857;53.484;10.216;2023-07-16T07:45:50;5.53;;;2.60;;
13571;SDS011;6857;53.484;10.216;2023-07-16T07:48:16;5.23;;;2.40;;
13571;SDS011;6857;53.484;10.216;2023-07-16T07:50:42;4.20;;;2.10;;
13571;SDS011;6857;53.484;10.216;2023-07-16T07:53:08;3.63;;;2.37;;
13571;SDS011;6857;53.484;10.216;2023-07-16T07:55:34;6.60;;;2.13;;
13571;SDS011;6857;53.484;10.216;2023-07-16T07:58:00;4.83;;;2.43;;
13571;SDS011;6857;53.484;10.216;2023-07-16T08:00:26;7.77;;;3.00;;
13571;SDS011;6857;53.484;10.216;2023-07-16T08:02:52;4.43;;;1.87;;
13571;SDS011;6857;53.484;10.216;2023-07-16T08:05:18;4.77;;;2.53;;
13571;SDS011;6857;53.484;10.216;2023-07-16T08:07:44;5.67;;;3.17;;
13571;SDS011;6857;53.484;10.216;2023-07-16T08:10:10;4.77;;;2.17;;
13571;SDS011;6857;53.484;10.216;2023-07-16T08:12:36;8.10;;;2.17;;
13571;SDS011;6857;53.484;10.216;2023-07-16T08:15:02;6.17;;;2.73;;
13571;SDS011;6857;53.484;10.216;2023-07-16T08:17:28;5.60;;;2.05;;
13571;SDS011;6857;53.484;10.216;2023-07-16T08:19:54;6.00;;;2.00;;
13571;SDS011;6857;53.484;10.216;2023-07-16T08:22:21;3.97;;;2.10;;
13571;SDS011;6857;53.484;10.216;2023-07-16T08:24:48;4.87;;;2.10;;
13571;SDS011;6857;53.484;10.216;2023-07-16T08:27:14;6.30;;;2.23;;
13571;SDS011;6857;53.484;10.216;2023-07-16T08:29:40;4.78;;;2.22;;
13571;SDS011;6857;53.484;10.216;2023-07-16T08:32:06;4.35;;;1.95;;
13571;SDS011;6857;53.484;10.216;2023-07-16T08:34:32;4.80;;;2.20;;
13571;SDS011;6857;53.484;10.216;2023-07-16T08:36:58;2.80;;;1.83;;
13571;SDS011;6857;53.484;10.216;2023-07-16T08:39:24;3.73;;;2.10;;
13571;SDS011;6857;53.484;10.216;2023-07-16T08:41:50;5.93;;;2.30;;
13571;SDS011;6857;53.484;10.216;2023-07-16T08:44:16;5.10;;;2.30;;
13571;SDS011;6857;53.484;10.216;2023-07-16T08:46:42;3.30;;;1.95;;
13571;SDS011;6857;53.484;10.216;2023-07-16T08:49:09;2.55;;;1.95;;
13571;SDS011;6857;53.484;10.216;2023-07-16T08:51:35;7.55;;;2.10;;
13571;SDS011;6857;53.484;10.216;2023-07-16T08:54:01;3.97;;;2.20;;
13571;SDS011;6857;53.484;10.216;2023-07-16T08:56:28;3.60;;;2.22;;
13571;SDS011;6857;53.484;10.216;2023-07-16T08:58:54;5.20;;;2.55;;
13571;SDS011;6857;53.484;10.216;2023-07-16T09:01:23;7.32;;;3.03;;
13571;SDS011;6857;53.484;10.216;2023-07-16T09:03:49;4.43;;;3.97;;
13571;SDS011;6857;53.484;10.216;2023-07-16T09:06:18;3.30;;;2.22;;
13571;SDS011;6857;53.484;10.216;2023-07-16T09:08:44;5.50;;;2.30;;
13571;SDS011;6857;53.484;10.216;2023-07-16T09:11:11;4.17;;;2.37;;
13571;SDS011;6857;53.484;10.216;2023-07-16T09:13:43;4.93;;;2.70;;
13571;SDS011;6857;53.484;10.216;2023-07-16T09:16:09;9.47;;;2.70;;
13571;SDS011;6857;53.484;10.216;2023-07-16T09:18:35;5.63;;;3.00;;
13571;SDS011;6857;53.484;10.216;2023-07-16T09:21:00;4.27;;;3.20;;
13571;SDS011;6857;53.484;10.216;2023-07-16T09:23:29;5.75;;;3.35;;
13571;SDS011;6857;53.484;10.216;2023-07-16T09:25:55;5.63;;;3.15;;
13571;SDS011;6857;53.484;10.216;2023-07-16T09:28:21;4.57;;;3.00;;
13571;SDS011;6857;53.484;10.216;2023-07-16T09:30:47;4.32;;;3.08;;
13571;SDS011;6857;53.484;10.216;2023-07-16T09:33:14;6.28;;;2.95;;
13571;SDS011;6857;53.484;10.216;2023-07-16T09:35:41;5.75;;;4.53;;
13571;SDS011;6857;53.484;10.216;2023-07-16T09:38:07;4.63;;;2.90;;
13571;SDS011;6857;53.484;10.216;2023-07-16T09:40:35;4.00;;;3.05;;
13571;SDS011;6857;53.484;10.216;2023-07-16T09:43:00;3.22;;;2.67;;
13571;SDS011;6857;53.484;10.216;2023-07-16T09:45:26;5.55;;;3.05;;
13571;SDS011;6857;53.484;10.216;2023-07-16T09:47:52;8.07;;;3.20;;
13571;SDS011;6857;53.484;10.216;2023-07-16T09:50:18;9.30;;;3.67;;
13571;SDS011;6857;53.484;10.216;2023-07-16T09:52:45;3.63;;;2.80;;
13571;SDS011;6857;53.484;10.216;2023-07-16T09:55:12;8.70;;;3.33;;
13571;SDS011;6857;53.484;10.216;2023-07-16T09:57:40;6.45;;;3.67;;
13571;SDS011;6857;53.484;10.216;2023-07-16T10:00:09;5.47;;;3.08;;
13571;SDS011;6857;53.484;10.216;2023-07-16T10:02:37;4.88;;;3.50;;
13571;SDS011;6857;53.484;10.216;2023-07-16T10:05:13;5.93;;;2.97;;
13571;SDS011;6857;53.484;10.216;2023-07-16T10:07:39;4.05;;;2.90;;
13571;SDS011;6857;53.484;10.216;2023-07-16T10:10:09;4.03;;;3.10;;
13571;SDS011;6857;53.484;10.216;2023-07-16T10:12:36;7.35;;;3.25;;
13571;SDS011;6857;53.484;10.216;2023-07-16T10:15:05;6.53;;;3.10;;
13571;SDS011;6857;53.484;10.216;2023-07-16T10:17:31;7.50;;;4.18;;
13571;SDS011;6857;53.484;10.216;2023-07-16T10:19:58;5.30;;;3.50;;
13571;SDS011;6857;53.484;10.216;2023-07-16T10:22:31;6.38;;;4.40;;
13571;SDS011;6857;53.484;10.216;2023-07-16T10:24:57;6.20;;;4.10;;
13571;SDS011;6857;53.484;10.216;2023-07-16T10:27:26;5.30;;;3.33;;
13571;SDS011;6857;53.484;10.216;2023-07-16T10:29:53;5.05;;;3.00;;
13571;SDS011;6857;53.484;10.216;2023-07-16T10:32:20;3.90;;;3.05;;
13571;SDS011;6857;53.484;10.216;2023-07-16T10:34:46;5.35;;;3.28;;
13571;SDS011;6857;53.484;10.216;2023-07-16T10:37:12;4.93;;;2.88;;
13571;SDS011;6857;53.484;10.216;2023-07-16T10:39:50;9.63;;;3.65;;
13571;SDS011;6857;53.484;10.216;2023-07-16T10:42:17;7.47;;;3.47;;
13571;SDS011;6857;53.484;10.216;2023-07-16T10:44:43;5.32;;;3.10;;
13571;SDS011;6857;53.484;10.216;2023-07-16T10:47:19;4.13;;;3.35;;
13571;SDS011;6857;53.484;10.216;2023-07-16T10:49:46;4.70;;;3.22;;
13571;SDS011;6857;53.484;10.216;2023-07-16T10:52:12;8.32;;;3.55;;
13571;SDS011;6857;53.484;10.216;2023-07-16T10:54:39;5.57;;;3.40;;
13571;SDS011;6857;53.484;10.216;2023-07-16T10:57:05;4.38;;;3.15;;
13571;SDS011;6857;53.484;10.216;2023-07-16T10:59:31;5.97;;;2.97;;
13571;SDS011;6857;53.484;10.216;2023-07-16T11:01:57;4.20;;;3.03;;
13571;SDS011;6857;53.484;10.216;2023-07-16T11:04:24;6.18;;;3.13;;
13571;SDS011;6857;53.484;10.216;2023-07-16T11:06:50;3.72;;;3.00;;
13571;SDS011;6857;53.484;10.216;2023-07-16T11:09:17;6.57;;;3.60;;
13571;SDS011;6857;53.484;10.216;2023-07-16T11:11:43;5.53;;;3.08;;
13571;SDS011;6857;53.484;10.216;2023-07-16T11:14:09;5.75;;;2.85;;
13571;SDS011;6857;53.484;10.216;2023-07-16T11:16:38;5.55;;;2.72;;
13571;SDS011;6857;53.484;10.216;2023-07-16T11:19:04;6.05;;;3.70;;
13571;SDS011;6857;53.484;10.216;2023-07-16T11:21:30;5.07;;;3.13;;
13571;SDS011;6857;53.484;10.216;2023-07-16T11:24:06;5.97;;;2.83;;
13571;SDS011;6857;53.484;10.216;2023-07-16T11:26:32;8.15;;;3.05;;
13571;SDS011;6857;53.484;10.216;2023-07-16T11:28:58;5.13;;;3.28;;
13571;SDS011;6857;53.484;10.216;2023-07-16T11:31:24;3.17;;;2.85;;
13571;SDS011;6857;53.484;10.216;2023-07-16T11:33:50;5.80;;;2.63;;
13571;SDS011;6857;53.484;10.216;2023-07-16T11:36:16;3.67;;;2.88;;
13571;SDS011;6857;53.484;10.216;2023-07-16T11:38:42;4.93;;;2.83;;
13571;SDS011;6857;53.484;10.216;2023-07-16T11:41:09;4.88;;;3.50;;
13571;SDS011;6857;53.484;10.216;2023-07-16T11:43:35;7.85;;;3.55;;
13571;SDS011;6857;53.484;10.216;2023-07-16T11:46:02;4.38;;;2.97;;
13571;SDS011;6857;53.484;10.216;2023-07-16T11:48:28;3.97;;;2.92;;
13571;SDS011;6857;53.484;10.216;2023-07-16T11:50:54;5.25;;;2.85;;
13571;SDS011;6857;53.484;10.216;2023-07-16T11:53:20;4.35;;;3.00;;
13571;SDS011;6857;53.484;10.216;2023-07-16T11:55:46;5.55;;;2.90;;
13571;SDS011;6857;53.484;10.216;2023-07-16T11:58:12;4.88;;;3.25;;
13571;SDS011;6857;53.484;10.216;2023-07-16T12:00:38;6.28;;;2.92;;
13571;SDS011;6857;53.484;10.216;2023-07-16T12:03:04;7.97;;;3.13;;
13571;SDS011;6857;53.484;10.216;2023-07-16T12:05:31;5.43;;;3.28;;
13571;SDS011;6857;53.484;10.216;2023-07-16T12:07:57;3.45;;;2.95;;
13571;SDS011;6857;53.484;10.216;2023-07-16T12:10:23;4.95;;;3.03;;
13571;SDS011;6857;53.484;10.216;2023-07-16T12:12:48;4.15;;;2.90;;
13571;SDS011;6857;53.484;10.216;2023-07-16T12:15:14;5.45;;;2.90;;
13571;SDS011;6857;53.484;10.216;2023-07-16T12:17:40;5.50;;;3.13;;
13571;SDS011;6857;53.484;10.216;2023-07-16T12:20:06;8.02;;;3.00;;
13571;SDS011;6857;53.484;10.216;2023-07-16T12:22:32;4.32;;;2.85;;
13571;SDS011;6857;53.484;10.216;2023-07-16T12:24:58;5.13;;;2.80;;
13571;SDS011;6857;53.484;10.216;2023-07-16T12:27:24;4.05;;;3.13;;
13571;SDS011;6857;53.484;10.216;2023-07-16T12:29:50;4.13;;;2.53;;
13571;SDS011;6857;53.484;10.216;2023-07-16T12:32:17;6.47;;;2.53;;
13571;SDS011;6857;53.484;10.216;2023-07-16T12:34:43;3.78;;;2.10;;
13571;SDS011;6857;53.484;10.216;2023-07-16T12:37:09;3.78;;;2.85;;
13571;SDS011;6857;53.484;10.216;2023-07-16T12:39:35;4.75;;;2.50;;
13571;SDS011;6857;53.484;10.216;2023-07-16T12:42:01;5.65;;;2.65;;
13571;SDS011;6857;53.484;10.216;2023-07-16T12:44:28;4.75;;;2.20;;
13571;SDS011;6857;53.484;10.216;2023-07-16T12:46:54;5.10;;;2.40;;
13571;SDS011;6857;53.484;10.216;2023-07-16T12:49:20;5.22;;;2.70;;
13571;SDS011;6857;53.484;10.216;2023-07-16T12:51:46;5.20;;;2.63;;
13571;SDS011;6857;53.484;10.216;2023-07-16T12:54:12;5.53;;;2.50;;
13571;SDS011;6857;53.484;10.216;2023-07-16T12:56:38;6.22;;;2.33;;
13571;SDS011;6857;53.484;10.216;2023-07-16T12:59:04;6.07;;;2.67;;
13571;SDS011;6857;53.484;10.216;2023-07-16T13:01:30;3.35;;;2.35;;
13571;SDS011;6857;53.484;10.216;2023-07-16T13:03:56;8.13;;;3.08;;
13571;SDS011;6857;53.484;10.216;2023-07-16T13:06:22;3.40;;;2.35;;
13571;SDS011;6857;53.484;10.216;2023-07-16T13:08:47;5.10;;;2.50;;
13571;SDS011;6857;53.484;10.216;2023-07-16T13:11:13;4.38;;;2.13;;
13571;SDS011;6857;53.484;10.216;2023-07-16T13:13:39;5.35;;;2.30;;
13571;SDS011;6857;53.484;10.216;2023-07-16T13:16:07;4.35;;;2.45;;
13571;SDS011;6857;53.484;10.216;2023-07-16T13:18:33;3.78;;;2.40;;
13571;SDS011;6857;53.484;10.216;2023-07-16T13:20:59;2.85;;;2.38;;
13571;SDS011;6857;53.484;10.216;2023-07-16T13:23:24;4.60;;;2.60;;
13571;SDS011;6857;53.484;10.216;2023-07-16T13:25:50;3.75;;;2.67;;
13571;SDS011;6857;53.484;10.216;2023-07-16T13:28:17;4.93;;;2.65;;
13571;SDS011;6857;53.484;10.216;2023-07-16T13:30:43;4.00;;;2.55;;
13571;SDS011;6857;53.484;10.216;2023-07-16T13:33:09;2.80;;;2.50;;
13571;SDS011;6857;53.484;10.216;2023-07-16T13:35:35;4.68;;;2.40;;
13571;SDS011;6857;53.484;10.216;2023-07-16T13:38:01;4.82;;;2.58;;
13571;SDS011;6857;53.484;10.216;2023-07-16T13:40:27;4.15;;;2.70;;
13571;SDS011;6857;53.484;10.216;2023-07-16T13:42:53;6.07;;;2.85;;
13571;SDS011;6857;53.484;10.216;2023-07-16T13:45:19;5.38;;;3.78;;
13571;SDS011;6857;53.484;10.216;2023-07-16T13:47:45;3.20;;;2.20;;
13571;SDS011;6857;53.484;10.216;2023-07-16T13:50:11;4.47;;;2.15;;
13571;SDS011;6857;53.484;10.216;2023-07-16T13:52:37;2.88;;;2.38;;
13571;SDS011;6857;53.484;10.216;2023-07-16T13:55:04;2.90;;;2.30;;
13571;SDS011;6857;53.484;10.216;2023-07-16T13:57:30;3.42;;;2.00;;
13571;SDS011;6857;53.484;10.216;2023-07-16T13:59:56;4.20;;;2.30;;
13571;SDS011;6857;53.484;10.216;2023-07-16T14:02:22;3.40;;;2.42;;
13571;SDS011;6857;53.484;10.216;2023-07-16T14:04:48;4.65;;;2.38;;
13571;SDS011;6857;53.484;10.216;2023-07-16T14:07:14;4.90;;;2.83;;
13571;SDS011;6857;53.484;10.216;2023-07-16T14:09:40;5.20;;;2.20;;
13571;SDS011;6857;53.484;10.216;2023-07-16T14:12:06;3.03;;;2.65;;
13571;SDS011;6857;53.484;10.216;2023-07-16T14:14:32;3.38;;;2.38;;
13571;SDS011;6857;53.484;10.216;2023-07-16T14:16:58;7.32;;;2.90;;
13571;SDS011;6857;53.484;10.216;2023-07-16T14:19:24;3.40;;;2.28;;
13571;SDS011;6857;53.484;10.216;2023-07-16T14:21:50;5.68;;;2.33;;
13571;SDS011;6857;53.484;10.216;2023-07-16T14:24:16;3.83;;;2.30;;
13571;SDS011;6857;53.484;10.216;2023-07-16T14:26:42;7.43;;;2.70;;
13571;SDS011;6857;53.484;10.216;2023-07-16T14:29:08;5.80;;;2.80;;
13571;SDS011;6857;53.484;10.216;2023-07-16T14:31:36;3.13;;;2.25;;
13571;SDS011;6857;53.484;10.216;2023-07-16T14:34:02;4.32;;;2.80;;
13571;SDS011;6857;53.484;10.216;2023-07-16T14:36:28;4.88;;;3.28;;
13571;SDS011;6857;53.484;10.216;2023-07-16T14:38:54;4.88;;;2.40;;
13571;SDS011;6857;53.484;10.216;2023-07-16T14:41:20;3.88;;;2.35;;
13571;SDS011;6857;53.484;10.216;2023-07-16T14:43:46;3.33;;;2.35;;
13571;SDS011;6857;53.484;10.216;2023-07-16T14:46:14;3.35;;;2.40;;
13571;SDS011;6857;53.484;10.216;2023-07-16T14:48:42;5.25;;;2.78;;
13571;SDS011;6857;53.484;10.216;2023-07-16T14:51:09;4.65;;;2.70;;